Time;durP1;ratioP1;P1;durP2;ratioP2;P2;SDS_P1;SDS_P2;PMS_P1;PMS_P2;Temp;Humidity;BMP_temperature;BMP_pressure;BME280_temperature;BME280_humidity;BME280_pressure;Samples;Min_cycle;Max_cycle;Signal;HPM_P1;HPM_P2
2023/04/03 00:01:19;;;;;;;1.87;1.77;;;7.70;80.30;;;;;;937127;148;27337;-76
2023/04/03 00:03:45;;;;;;;2.37;1.87;;;7.70;80.40;;;;;;936642;148;27283;-75
2023/04/03 00:06:12;;;;;;;2.17;1.77;;;7.70;80.40;;;;;;915633;150;27368;-75
2023/04/03 00:08:39;;;;;;;4.57;2.00;;;7.70;80.60;;;;;;936074;148;27398;-76
2023/04/03 00:11:05;;;;;;;2.20;1.80;;;7.70;80.80;;;;;;936939;148;27287;-76
2023/04/03 00:13:32;;;;;;;2.07;1.93;;;7.70;80.70;;;;;;937283;148;27290;-76
2023/04/03 00:15:58;;;;;;;1.80;1.70;;;7.60;80.60;;;;;;934260;149;27357;-76
2023/04/03 00:18:25;;;;;;;2.07;1.97;;;7.60;80.60;;;;;;938994;150;27376;-76
2023/04/03 00:20:51;;;;;;;2.27;1.70;;;7.60;80.90;;;;;;934504;149;27417;-76
2023/04/03 00:23:18;;;;;;;2.00;1.90;;;7.60;80.90;;;;;;937234;150;27290;-76
2023/04/03 00:25:45;;;;;;;2.00;1.80;;;7.60;80.90;;;;;;944101;148;27411;-75
2023/04/03 00:28:11;;;;;;;2.13;1.83;;;7.60;81.00;;;;;;934907;149;27366;-75
2023/04/03 00:30:38;;;;;;;3.00;2.70;;;7.60;81.00;;;;;;938610;150;27430;-76
2023/04/03 00:33:04;;;;;;;2.87;2.67;;;7.60;81.00;;;;;;936298;148;27285;-75
2023/04/03 00:35:31;;;;;;;4.27;3.00;;;7.60;81.10;;;;;;934603;148;27859;-75
2023/04/03 00:37:57;;;;;;;4.67;2.80;;;7.50;81.00;;;;;;919967;151;27460;-75
2023/04/03 00:40:24;;;;;;;3.23;2.90;;;7.50;81.00;;;;;;932191;149;27482;-75
2023/04/03 00:42:56;;;;;;;3.30;2.70;;;7.50;81.10;;;;;;938900;150;27376;-76
2023/04/03 00:45:25;;;;;;;3.33;2.67;;;7.50;81.20;;;;;;927600;150;27375;-75
2023/04/03 00:47:52;;;;;;;2.37;2.17;;;7.50;81.40;;;;;;921843;150;27537;-76
2023/04/03 00:50:19;;;;;;;2.20;2.00;;;7.50;81.30;;;;;;936480;149;27434;-75
2023/04/03 00:52:46;;;;;;;1.83;1.73;;;7.50;81.30;;;;;;931638;149;27444;-75
2023/04/03 00:55:12;;;;;;;3.60;1.87;;;7.50;81.30;;;;;;932054;149;27330;-75
2023/04/03 00:57:38;;;;;;;2.43;2.23;;;7.50;81.40;;;;;;933881;149;27413;-75
2023/04/03 01:00:05;;;;;;;2.00;1.90;;;7.40;81.40;;;;;;931065;149;27427;-76
2023/04/03 01:02:32;;;;;;;1.60;1.50;;;7.50;81.50;;;;;;938368;150;27342;-75
2023/04/03 01:04:58;;;;;;;2.50;1.83;;;7.40;81.50;;;;;;923507;150;27389;-75
2023/04/03 01:07:28;;;;;;;1.70;1.60;;;7.50;81.70;;;;;;922793;152;27399;-75
2023/04/03 01:09:54;;;;;;;2.10;1.90;;;7.50;81.70;;;;;;931171;149;27409;-76
2023/04/03 01:12:24;;;;;;;4.17;1.90;;;7.40;81.70;;;;;;934473;149;27278;-76
2023/04/03 01:14:51;;;;;;;2.80;1.90;;;7.50;81.90;;;;;;939310;150;27283;-75
2023/04/03 01:17:30;;;;;;;2.17;1.63;;;7.50;81.80;;;;;;938054;150;27439;-75
2023/04/03 01:20:02;;;;;;;2.63;1.77;;;7.40;81.80;;;;;;933633;149;27377;-75
2023/04/03 01:22:28;;;;;;;2.00;1.80;;;7.50;81.90;;;;;;935865;150;27362;-76
2023/04/03 01:24:55;;;;;;;2.60;1.73;;;7.50;82.00;;;;;;921479;151;27303;-75
2023/04/03 01:27:21;;;;;;;3.23;1.73;;;7.50;82.10;;;;;;937352;148;27907;-75
2023/04/03 01:29:48;;;;;;;1.73;1.63;;;7.50;82.20;;;;;;929327;150;27370;-75
2023/04/03 01:32:15;;;;;;;1.80;1.63;;;7.50;82.20;;;;;;934021;149;27333;-76
2023/04/03 01:34:41;;;;;;;2.10;1.77;;;7.50;82.10;;;;;;933201;149;27329;-75
2023/04/03 01:37:08;;;;;;;1.93;1.83;;;7.50;82.00;;;;;;935861;149;27289;-75
2023/04/03 01:39:34;;;;;;;5.23;2.37;;;7.50;81.80;;;;;;939257;150;27373;-75
2023/04/03 01:42:01;;;;;;;1.80;1.70;;;7.50;81.80;;;;;;947692;147;27392;-75
2023/04/03 01:44:27;;;;;;;1.70;1.60;;;7.50;81.70;;;;;;939444;149;27404;-75
2023/04/03 01:46:54;;;;;;;2.30;2.10;;;7.50;81.70;;;;;;943940;148;27285;-75
2023/04/03 01:49:20;;;;;;;2.60;2.10;;;7.50;81.60;;;;;;928112;149;27376;-77
2023/04/03 01:51:47;;;;;;;2.07;1.70;;;7.50;81.60;;;;;;938160;149;27358;-75
2023/04/03 01:54:14;;;;;;;2.00;1.90;;;7.50;81.60;;;;;;932871;149;27353;-75
2023/04/03 01:56:40;;;;;;;3.10;2.27;;;7.50;81.50;;;;;;922273;150;27890;-75
2023/04/03 01:59:07;;;;;;;2.73;1.90;;;7.40;81.60;;;;;;940338;149;27365;-75
2023/04/03 02:01:33;;;;;;;2.97;1.80;;;7.40;81.60;;;;;;930545;149;27400;-75
2023/04/03 02:04:00;;;;;;;2.83;2.30;;;7.40;81.70;;;;;;931720;149;27871;-76
2023/04/03 02:06:27;;;;;;;2.40;2.17;;;7.40;81.80;;;;;;937932;149;27858;-75
2023/04/03 02:08:53;;;;;;;2.23;2.07;;;7.40;81.80;;;;;;920871;152;27392;-76
2023/04/03 02:11:20;;;;;;;2.57;2.20;;;7.40;81.90;;;;;;920778;153;27378;-76
2023/04/03 02:13:46;;;;;;;3.17;1.90;;;7.40;81.90;;;;;;939508;149;27829;-76
2023/04/03 02:16:13;;;;;;;2.23;2.03;;;7.40;82.00;;;;;;931067;149;27329;-75
2023/04/03 02:18:39;;;;;;;2.30;2.00;;;7.40;82.00;;;;;;930679;149;27420;-76
2023/04/03 02:21:06;;;;;;;3.07;2.20;;;7.40;82.10;;;;;;930772;149;27464;-75
2023/04/03 02:23:33;;;;;;;2.33;2.13;;;7.40;82.10;;;;;;931267;149;27356;-76
2023/04/03 02:26:11;;;;;;;3.23;1.93;;;7.40;82.10;;;;;;910894;153;27380;-75
2023/04/03 02:28:38;;;;;;;2.23;2.13;;;7.40;82.20;;;;;;909550;155;27470;-75
2023/04/03 02:31:07;;;;;;;2.97;2.03;;;7.40;82.20;;;;;;910488;155;28101;-76
2023/04/03 02:33:31;;;;;;;3.40;2.50;;;7.40;82.30;;;;;;910112;155;27409;-74
2023/04/03 02:35:57;;;;;;;2.30;2.10;;;7.30;82.30;;;;;;907839;155;27405;-75
2023/04/03 02:38:24;;;;;;;2.40;2.20;;;7.30;82.50;;;;;;934516;149;27381;-74
2023/04/03 02:40:51;;;;;;;2.20;1.93;;;7.30;82.60;;;;;;929123;149;27302;-74
2023/04/03 02:43:17;;;;;;;3.67;2.30;;;7.30;82.60;;;;;;932760;149;27789;-75
2023/04/03 02:45:44;;;;;;;2.53;1.90;;;7.30;82.70;;;;;;910793;153;27466;-74
2023/04/03 02:48:11;;;;;;;2.23;2.03;;;7.30;82.70;;;;;;913243;154;27511;-74
2023/04/03 02:50:37;;;;;;;1.93;1.83;;;7.30;82.80;;;;;;909335;153;27414;-75
2023/04/03 02:53:04;;;;;;;2.63;2.30;;;7.30;82.80;;;;;;913087;154;27393;-74
2023/04/03 02:55:30;;;;;;;3.00;2.03;;;7.30;82.80;;;;;;912887;154;27474;-74
2023/04/03 02:57:57;;;;;;;2.27;2.07;;;7.30;82.90;;;;;;915633;151;27409;-75
2023/04/03 03:00:23;;;;;;;1.93;1.83;;;7.20;82.80;;;;;;942930;149;28918;-74
2023/04/03 03:02:50;;;;;;;2.00;1.90;;;7.20;82.80;;;;;;947002;147;27398;-75
2023/04/03 03:05:16;;;;;;;2.53;1.90;;;7.20;82.90;;;;;;923839;150;27465;-74
2023/04/03 03:07:43;;;;;;;4.13;2.20;;;7.20;83.00;;;;;;939038;149;27385;-74
2023/04/03 03:10:10;;;;;;;3.37;1.97;;;7.20;83.00;;;;;;940170;149;27491;-74
2023/04/03 03:12:36;;;;;;;2.03;1.93;;;7.20;83.10;;;;;;941537;149;27367;-74
2023/04/03 03:15:03;;;;;;;3.43;1.60;;;7.20;83.10;;;;;;940060;149;27825;-74
2023/04/03 03:17:29;;;;;;;3.40;2.20;;;7.20;83.10;;;;;;939899;149;27396;-74
2023/04/03 03:19:56;;;;;;;1.77;1.67;;;7.10;83.90;;;;;;941480;149;27377;-75
2023/04/03 03:22:23;;;;;;;2.10;2.00;;;7.10;83.10;;;;;;940235;149;27367;-74
2023/04/03 03:24:49;;;;;;;1.90;1.67;;;7.10;83.10;;;;;;939616;149;27361;-74
2023/04/03 03:27:16;;;;;;;2.90;1.90;;;7.10;83.10;;;;;;939263;149;27332;-74
2023/04/03 03:29:42;;;;;;;6.00;1.87;;;7.10;83.20;;;;;;941360;149;27347;-74
2023/04/03 03:32:09;;;;;;;2.17;1.80;;;7.00;83.20;;;;;;940800;149;27458;-74
2023/04/03 03:34:36;;;;;;;2.00;1.70;;;7.00;83.20;;;;;;941415;149;27346;-75
2023/04/03 03:37:02;;;;;;;2.90;1.80;;;7.00;83.30;;;;;;941613;149;27303;-74
2023/04/03 03:39:29;;;;;;;2.23;1.73;;;7.00;83.30;;;;;;940812;149;27318;-74
2023/04/03 03:41:55;;;;;;;3.17;1.90;;;7.00;83.40;;;;;;941310;149;27369;-74
2023/04/03 03:44:22;;;;;;;3.03;2.20;;;6.90;83.30;;;;;;940852;149;27318;-74
2023/04/03 03:46:48;;;;;;;1.80;1.70;;;6.90;83.30;;;;;;944437;148;27885;-74
2023/04/03 03:49:15;;;;;;;2.70;1.97;;;6.90;83.30;;;;;;928222;150;27283;-74
2023/04/03 03:51:42;;;;;;;2.20;1.80;;;6.90;83.30;;;;;;926837;150;27360;-74
2023/04/03 03:54:08;;;;;;;1.77;1.60;;;6.80;83.20;;;;;;941432;149;27370;-74
2023/04/03 03:56:35;;;;;;;2.20;1.87;;;6.80;83.20;;;;;;939529;149;27342;-74
2023/04/03 03:59:01;;;;;;;2.43;1.83;;;6.80;83.20;;;;;;937490;149;27345;-74
2023/04/03 04:01:28;;;;;;;2.23;1.57;;;6.70;83.10;;;;;;940253;152;27348;-74
2023/04/03 04:03:55;;;;;;;1.33;1.23;;;6.70;83.00;;;;;;941439;149;27442;-74
2023/04/03 04:06:21;;;;;;;1.73;1.50;;;6.70;82.90;;;;;;921051;151;27433;-75
2023/04/03 04:08:48;;;;;;;4.63;2.03;;;6.60;82.80;;;;;;940832;150;27302;-74
2023/04/03 04:11:14;;;;;;;2.87;1.70;;;6.60;82.90;;;;;;941418;152;27338;-74
2023/04/03 04:13:41;;;;;;;2.07;1.60;;;6.60;82.80;;;;;;941866;149;27349;-74
2023/04/03 04:16:07;;;;;;;2.70;1.70;;;6.50;82.70;;;;;;941683;149;27462;-74
2023/04/03 04:18:34;;;;;;;2.83;2.00;;;6.50;82.70;;;;;;928365;152;27333;-74
2023/04/03 04:21:01;;;;;;;1.40;1.30;;;6.50;82.70;;;;;;927704;151;27334;-74
2023/04/03 04:23:27;;;;;;;2.67;1.60;;;6.50;82.80;;;;;;930714;154;27433;-74
2023/04/03 04:25:54;;;;;;;2.87;1.60;;;6.40;82.90;;;;;;926540;153;27362;-74
2023/04/03 04:28:20;;;;;;;2.73;1.53;;;6.50;82.80;;;;;;925703;152;27982;-74
2023/04/03 04:30:47;;;;;;;1.83;1.57;;;6.50;82.70;;;;;;939349;152;27311;-74
2023/04/03 04:33:14;;;;;;;1.30;1.20;;;6.40;82.50;;;;;;925080;152;27392;-74
2023/04/03 04:35:40;;;;;;;3.83;1.50;;;6.40;82.20;;;;;;942372;151;27318;-74
2023/04/03 04:38:08;;;;;;;3.70;1.77;;;6.40;82.10;;;;;;939939;151;27430;-74
2023/04/03 04:40:33;;;;;;;2.07;1.70;;;6.40;82.00;;;;;;942405;151;27398;-74
2023/04/03 04:43:00;;;;;;;2.97;2.00;;;6.40;81.80;;;;;;922070;155;27324;-75
2023/04/03 04:45:26;;;;;;;1.93;1.50;;;6.30;81.70;;;;;;927871;151;27358;-74
2023/04/03 04:47:53;;;;;;;3.17;1.83;;;6.30;81.50;;;;;;930809;152;27406;-74
2023/04/03 04:50:20;;;;;;;4.20;1.60;;;6.30;81.50;;;;;;929308;151;27362;-74
2023/04/03 04:52:46;;;;;;;3.70;2.17;;;6.20;81.40;;;;;;921029;152;27298;-74
2023/04/03 04:55:13;;;;;;;4.00;1.93;;;6.20;81.30;;;;;;929597;154;27300;-74
2023/04/03 04:57:39;;;;;;;2.00;1.43;;;6.20;81.40;;;;;;929800;154;27344;-75
2023/04/03 05:00:06;;;;;;;1.30;1.20;;;6.10;81.40;;;;;;920588;152;27422;-74
2023/04/03 05:02:33;;;;;;;4.87;1.83;;;6.10;81.40;;;;;;916555;155;27859;-74
2023/04/03 05:04:59;;;;;;;2.37;1.70;;;6.00;81.60;;;;;;915693;154;27435;-75
2023/04/03 05:07:26;;;;;;;2.67;1.60;;;6.00;81.40;;;;;;942601;149;27328;-74
2023/04/03 05:09:52;;;;;;;2.23;1.60;;;6.00;81.40;;;;;;937003;150;27490;-74
2023/04/03 05:12:19;;;;;;;3.00;1.90;;;5.90;81.40;;;;;;942680;148;27446;-74
2023/04/03 05:14:46;;;;;;;3.00;1.60;;;5.90;81.40;;;;;;944062;148;27333;-74
2023/04/03 05:17:12;;;;;;;3.60;2.03;;;5.90;81.70;;;;;;947375;147;27304;-74
2023/04/03 05:19:39;;;;;;;3.03;1.93;;;5.80;81.80;;;;;;944054;148;27371;-74
2023/04/03 05:22:05;;;;;;;4.60;2.10;;;5.80;82.30;;;;;;943860;147;27360;-74
2023/04/03 05:24:32;;;;;;;3.83;2.23;;;5.90;82.70;;;;;;927535;150;27404;-74
2023/04/03 05:26:58;;;;;;;3.10;1.80;;;5.90;83.20;;;;;;942024;149;27438;-75
2023/04/03 05:29:25;;;;;;;1.90;1.80;;;6.00;83.50;;;;;;939754;148;27287;-74
2023/04/03 05:31:52;;;;;;;2.80;1.73;;;6.10;83.80;;;;;;938031;149;27957;-74
2023/04/03 05:34:18;;;;;;;3.53;2.03;;;6.30;84.50;;;;;;943502;149;27356;-74
2023/04/03 05:36:45;;;;;;;2.73;1.70;;;6.50;85.40;;;;;;942959;149;27425;-75
2023/04/03 05:39:11;;;;;;;2.67;1.80;;;6.80;86.20;;;;;;938404;149;27424;-75
2023/04/03 05:41:38;;;;;;;3.13;1.83;;;7.10;86.80;;;;;;936948;150;27338;-75
2023/04/03 05:44:05;;;;;;;2.70;1.70;;;7.40;86.90;;;;;;936927;150;27412;-74
2023/04/03 05:46:31;;;;;;;2.60;1.80;;;7.80;86.60;;;;;;937552;150;27338;-74
2023/04/03 05:48:58;;;;;;;3.50;2.00;;;8.10;86.20;;;;;;943654;148;27292;-75
2023/04/03 05:51:25;;;;;;;4.27;1.93;;;8.50;86.00;;;;;;943924;148;27325;-74
2023/04/03 05:53:51;;;;;;;5.43;2.43;;;8.90;84.30;;;;;;943607;148;27357;-75
2023/04/03 05:56:17;;;;;;;4.23;2.20;;;9.20;83.70;;;;;;943988;148;27345;-75
2023/04/03 05:58:44;;;;;;;4.17;2.50;;;9.60;83.40;;;;;;947053;147;27256;-74
2023/04/03 06:01:11;;;;;;;4.13;1.83;;;9.90;82.80;;;;;;945853;147;27340;-74
2023/04/03 06:03:39;;;;;;;3.83;2.00;;;10.30;82.10;;;;;;945375;147;27793;-73
2023/04/03 06:06:04;;;;;;;3.67;2.43;;;10.60;81.40;;;;;;940573;149;27393;-74
2023/04/03 06:08:30;;;;;;;3.10;2.20;;;11.00;79.70;;;;;;939702;149;27971;-74
2023/04/03 06:10:57;;;;;;;3.43;1.70;;;11.30;78.90;;;;;;940045;149;27322;-74
2023/04/03 06:13:24;;;;;;;2.73;1.77;;;11.70;78.50;;;;;;944372;148;27399;-74
2023/04/03 06:15:50;;;;;;;4.97;1.87;;;12.00;77.60;;;;;;921076;149;27332;-74
2023/04/03 06:18:17;;;;;;;2.80;1.73;;;12.30;76.20;;;;;;940932;149;27384;-74
2023/04/03 06:20:43;;;;;;;3.87;1.80;;;12.60;76.30;;;;;;939198;149;27334;-74
2023/04/03 06:23:10;;;;;;;1.70;1.27;;;13.00;75.90;;;;;;942464;148;27860;-74
2023/04/03 06:25:37;;;;;;;2.35;1.65;;;13.30;75.80;;;;;;939784;149;27407;-74
2023/04/03 06:28:03;;;;;;;2.75;1.52;;;13.70;74.40;;;;;;939912;149;27365;-74
2023/04/03 06:30:30;;;;;;;2.25;1.60;;;14.00;73.50;;;;;;939901;149;27458;-74
2023/04/03 06:32:56;;;;;;;2.52;1.57;;;14.30;73.00;;;;;;939675;149;27465;-74
2023/04/03 06:35:23;;;;;;;2.25;1.77;;;14.60;72.10;;;;;;940671;149;27358;-74
2023/04/03 06:37:49;;;;;;;3.35;1.70;;;14.90;71.40;;;;;;940784;149;27362;-74
2023/04/03 06:40:16;;;;;;;1.90;1.60;;;15.20;70.30;;;;;;940801;149;27393;-74
2023/04/03 06:42:43;;;;;;;1.92;1.70;;;15.40;68.70;;;;;;940098;149;27441;-74
2023/04/03 06:45:11;;;;;;;2.60;1.70;;;15.60;65.40;;;;;;940144;149;27419;-74
2023/04/03 06:47:36;;;;;;;1.85;1.60;;;15.70;66.60;;;;;;942954;148;27397;-74
2023/04/03 06:50:02;;;;;;;2.92;1.65;;;15.90;65.90;;;;;;940809;149;27447;-74
2023/04/03 06:52:29;;;;;;;3.40;1.67;;;16.10;66.60;;;;;;939773;149;27373;-74
2023/04/03 06:54:59;;;;;;;3.67;1.70;;;16.30;67.00;;;;;;939362;149;27414;-74
2023/04/03 06:57:22;;;;;;;4.72;1.80;;;16.60;66.70;;;;;;943277;148;27313;-74
2023/04/03 06:59:49;;;;;;;3.20;2.17;;;16.90;64.90;;;;;;940470;149;27395;-75
2023/04/03 07:02:15;;;;;;;4.08;2.35;;;17.20;64.40;;;;;;940674;148;27489;-74
2023/04/03 07:04:42;;;;;;;3.83;1.90;;;17.40;63.90;;;;;;941527;149;27747;-74
2023/04/03 07:07:09;;;;;;;3.50;1.67;;;17.70;64.70;;;;;;925700;154;27342;-74
2023/04/03 07:09:35;;;;;;;3.65;1.77;;;17.90;63.20;;;;;;926912;152;27447;-74
2023/04/03 07:12:02;;;;;;;3.15;1.80;;;18.10;62.10;;;;;;943568;151;27344;-74
2023/04/03 07:14:28;;;;;;;2.55;1.50;;;18.30;60.20;;;;;;942217;151;27347;-74
2023/04/03 07:16:55;;;;;;;3.15;1.72;;;18.50;60.30;;;;;;938962;149;27409;-74
2023/04/03 07:19:21;;;;;;;3.25;1.67;;;18.60;59.20;;;;;;937222;150;27269;-75
2023/04/03 07:21:48;;;;;;;2.83;1.80;;;18.70;57.60;;;;;;936114;151;27323;-74
2023/04/03 07:24:15;;;;;;;2.33;1.67;;;18.80;55.80;;;;;;927776;153;27455;-74
2023/04/03 07:26:41;;;;;;;3.35;1.35;;;18.80;57.40;;;;;;927502;153;27365;-75
2023/04/03 07:29:08;;;;;;;3.50;1.70;;;18.90;58.10;;;;;;928507;153;27298;-74
2023/04/03 07:31:34;;;;;;;3.67;2.15;;;19.00;56.70;;;;;;928713;153;27310;-74
2023/04/03 07:34:01;;;;;;;2.33;1.77;;;19.20;57.50;;;;;;940278;151;27302;-74
2023/04/03 07:36:28;;;;;;;2.22;1.55;;;19.40;57.20;;;;;;940291;152;27427;-74
2023/04/03 07:38:54;;;;;;;2.35;1.52;;;19.60;57.10;;;;;;924532;153;27280;-74
2023/04/03 07:41:22;;;;;;;2.00;1.50;;;19.80;55.90;;;;;;926711;153;27426;-74
2023/04/03 07:43:49;;;;;;;4.30;1.52;;;19.90;55.60;;;;;;941619;149;27329;-74
2023/04/03 07:46:14;;;;;;;2.35;1.47;;;20.00;54.20;;;;;;928829;151;27383;-74
2023/04/03 07:48:41;;;;;;;5.15;1.82;;;20.10;55.00;;;;;;927326;153;27369;-74
2023/04/03 07:51:07;;;;;;;2.12;1.35;;;20.10;54.20;;;;;;946625;151;27382;-74
2023/04/03 07:53:34;;;;;;;1.77;1.20;;;20.20;54.50;;;;;;941506;151;27411;-74
2023/04/03 07:56:02;;;;;;;2.15;1.50;;;20.30;53.80;;;;;;925190;154;27465;-74
2023/04/03 07:58:27;;;;;;;2.12;1.55;;;20.40;53.00;;;;;;943102;151;27343;-74
2023/04/03 08:00:53;;;;;;;1.67;1.35;;;20.40;52.20;;;;;;918688;154;27683;-74
2023/04/03 08:03:20;;;;;;;4.15;2.40;;;20.40;52.00;;;;;;940587;151;27364;-74
2023/04/03 08:05:47;;;;;;;1.57;1.25;;;20.50;52.40;;;;;;942873;148;27286;-74
2023/04/03 08:08:13;;;;;;;2.80;1.40;;;20.50;52.30;;;;;;943606;148;27349;-74
2023/04/03 08:10:40;;;;;;;3.20;1.57;;;20.60;52.40;;;;;;948141;147;27444;-74
2023/04/03 08:13:06;;;;;;;1.98;1.52;;;20.80;51.70;;;;;;941772;149;27431;-74
2023/04/03 08:15:33;;;;;;;3.17;1.50;;;20.90;52.40;;;;;;943598;149;27307;-74
2023/04/03 08:18:00;;;;;;;2.87;1.70;;;21.00;49.20;;;;;;943496;149;27314;-74
2023/04/03 08:20:26;;;;;;;1.42;1.17;;;21.10;50.60;;;;;;943898;149;27366;-74
2023/04/03 08:22:53;;;;;;;4.85;1.52;;;21.30;51.30;;;;;;942405;149;27350;-74
2023/04/03 08:25:22;;;;;;;2.27;1.07;;;21.40;47.80;;;;;;926751;150;27367;-75
2023/04/03 08:27:46;;;;;;;1.98;1.45;;;21.50;50.00;;;;;;925722;151;27343;-74
2023/04/03 08:30:13;;;;;;;2.02;1.10;;;21.60;50.00;;;;;;942994;149;27357;-74
2023/04/03 08:32:41;;;;;;;4.33;1.90;;;21.70;48.90;;;;;;941419;149;27378;-74
2023/04/03 08:35:06;;;;;;;1.65;1.27;;;21.80;47.70;;;;;;943654;149;27803;-73
2023/04/03 08:37:32;;;;;;;2.40;1.47;;;21.90;48.80;;;;;;942067;149;27403;-74
2023/04/03 08:39:59;;;;;;;1.50;1.22;;;22.00;47.70;;;;;;942818;149;27733;-74
2023/04/03 08:42:37;;;;;;;2.08;1.00;;;22.00;48.40;;;;;;943951;149;27445;-73
2023/04/03 08:45:16;;;;;;;2.10;1.10;;;22.00;48.60;;;;;;942761;149;27388;-74
2023/04/03 08:48:01;;;;;;;1.52;1.10;;;21.90;47.30;;;;;;944257;149;27259;-74
2023/04/03 08:50:28;;;;;;;4.25;1.37;;;21.70;47.30;;;;;;932514;149;27434;-73
2023/04/03 08:52:57;;;;;;;1.30;1.20;;;21.40;46.90;;;;;;942161;149;27439;-74
2023/04/03 08:55:32;;;;;;;2.87;1.87;;;21.20;46.50;;;;;;943939;149;27347;-74
2023/04/03 08:58:01;;;;;;;1.45;0.93;;;20.90;46.80;;;;;;942835;149;27380;-74
2023/04/03 09:00:28;;;;;;;1.32;1.22;;;20.50;46.30;;;;;;942197;149;27430;-73
2023/04/03 09:02:55;;;;;;;1.77;1.22;;;19.90;46.10;;;;;;940983;149;27483;-73
2023/04/03 09:05:38;;;;;;;1.98;1.47;;;19.30;45.70;;;;;;934547;150;27330;-73
2023/04/03 09:08:15;;;;;;;1.77;1.32;;;18.60;46.20;;;;;;924548;150;27310;-73
2023/04/03 09:10:41;;;;;;;2.92;1.60;;;18.00;46.70;;;;;;926032;150;27346;-73
2023/04/03 09:13:14;;;;;;;2.00;1.50;;;17.40;47.40;;;;;;926071;150;27347;-73
2023/04/03 09:15:41;;;;;;;3.90;1.40;;;17.00;48.00;;;;;;925020;150;27489;-74
2023/04/03 09:18:16;;;;;;;2.40;1.20;;;16.70;48.20;;;;;;925078;150;27875;-73
2023/04/03 09:21:03;;;;;;;1.98;1.30;;;16.40;48.90;;;;;;925330;150;27395;-75
2023/04/03 09:23:30;;;;;;;2.95;1.30;;;16.20;48.80;;;;;;924713;150;27932;-74
2023/04/03 09:26:05;;;;;;;1.70;1.32;;;16.10;48.30;;;;;;924681;150;27444;-74
2023/04/03 09:28:35;;;;;;;1.82;1.35;;;15.90;49.20;;;;;;925488;150;27416;-74
2023/04/03 09:31:01;;;;;;;2.33;1.30;;;15.60;48.90;;;;;;925114;150;27283;-73
2023/04/03 09:33:28;;;;;;;1.52;1.20;;;15.50;49.20;;;;;;925022;150;27366;-74
2023/04/03 09:35:55;;;;;;;1.98;1.45;;;15.30;50.00;;;;;;924085;150;27362;-73
2023/04/03 09:38:22;;;;;;;2.33;1.40;;;15.10;49.00;;;;;;925890;150;27322;-73
2023/04/03 09:40:48;;;;;;;2.08;1.87;;;14.90;49.30;;;;;;925701;150;27384;-74
2023/04/03 09:43:17;;;;;;;2.50;1.60;;;14.60;49.30;;;;;;924780;150;27460;-73
2023/04/03 09:45:44;;;;;;;2.75;1.70;;;14.30;48.40;;;;;;925256;150;27358;-73
2023/04/03 09:48:13;;;;;;;2.23;1.60;;;13.90;49.00;;;;;;925613;150;27323;-74
2023/04/03 09:51:01;;;;;;;5.40;1.70;;;13.70;49.90;;;;;;926044;150;27650;-73
2023/04/03 09:53:42;;;;;;;1.72;1.45;;;13.40;50.10;;;;;;923191;150;27378;-73
2023/04/03 09:56:17;;;;;;;2.15;1.75;;;13.30;50.60;;;;;;922284;150;27960;-74
2023/04/03 09:58:50;;;;;;;1.70;1.30;;;13.20;51.50;;;;;;926268;150;27434;-73
2023/04/03 10:01:28;;;;;;;1.80;1.65;;;13.20;52.00;;;;;;926125;150;27451;-73
2023/04/03 10:04:16;;;;;;;1.70;1.50;;;13.30;52.50;;;;;;924637;150;27385;-74
2023/04/03 10:06:49;;;;;;;3.30;1.47;;;13.40;52.20;;;;;;926892;150;27365;-73
2023/04/03 10:09:27;;;;;;;1.57;1.27;;;13.40;52.40;;;;;;926197;150;27459;-74
2023/04/03 10:11:57;;;;;;;1.77;1.40;;;13.40;52.60;;;;;;926129;150;27781;-74
2023/04/03 10:14:23;;;;;;;2.47;1.62;;;13.50;52.80;;;;;;926286;150;27414;-73
2023/04/03 10:16:56;;;;;;;2.27;1.40;;;13.60;52.10;;;;;;925326;150;27369;-73
2023/04/03 10:19:35;;;;;;;2.10;1.50;;;13.60;52.40;;;;;;928044;150;27444;-73
2023/04/03 10:22:22;;;;;;;1.83;1.50;;;13.60;51.30;;;;;;940778;149;27352;-74
2023/04/03 10:24:55;;;;;;;2.37;1.40;;;13.60;51.60;;;;;;946946;148;27426;-76
2023/04/03 10:27:27;;;;;;;3.00;1.70;;;13.50;51.60;;;;;;941021;149;27361;-73
2023/04/03 10:30:18;;;;;;;5.63;2.00;;;13.40;50.40;;;;;;932867;147;27322;-74
2023/04/03 10:33:00;;;;;;;2.43;1.63;;;13.30;50.30;;;;;;957533;147;27271;-74
2023/04/03 10:35:29;;;;;;;2.93;2.07;;;13.20;49.90;;;;;;946471;150;27374;-74
2023/04/03 10:38:04;;;;;;;3.03;1.73;;;13.00;50.20;;;;;;942732;150;27329;-74
2023/04/03 10:40:32;;;;;;;2.50;1.43;;;12.90;50.90;;;;;;941828;148;27360;-73
2023/04/03 10:43:07;;;;;;;2.80;1.93;;;12.70;51.40;;;;;;926675;150;27351;-73
2023/04/03 10:45:45;;;;;;;2.13;1.63;;;12.70;51.60;;;;;;937922;150;27403;-73
2023/04/03 10:48:18;;;;;;;1.87;1.63;;;12.60;51.60;;;;;;925943;150;27484;-74
2023/04/03 10:50:53;;;;;;;1.50;1.40;;;12.60;52.30;;;;;;936803;150;27417;-73
2023/04/03 10:53:32;;;;;;;2.70;2.07;;;12.60;52.30;;;;;;937091;150;27325;-75
2023/04/03 10:55:58;;;;;;;1.50;1.40;;;12.70;52.40;;;;;;942090;148;27378;-75
2023/04/03 10:58:33;;;;;;;4.33;1.87;;;12.70;51.60;;;;;;921575;150;27467;-75
2023/04/03 11:01:12;;;;;;;2.13;1.70;;;12.70;51.60;;;;;;939839;150;28854;-74
2023/04/03 11:03:41;;;;;;;2.40;1.50;;;12.80;51.80;;;;;;943734;147;27346;-74
2023/04/03 11:06:10;;;;;;;1.50;1.40;;;12.80;51.70;;;;;;932816;149;27370;-74
2023/04/03 11:08:44;;;;;;;1.90;1.40;;;12.80;50.70;;;;;;928005;149;27892;-74
2023/04/03 11:11:09;;;;;;;2.37;1.70;;;12.70;50.60;;;;;;925746;150;27299;-74
2023/04/03 11:13:36;;;;;;;1.97;1.57;;;12.60;50.60;;;;;;927677;150;27314;-73
2023/04/03 11:16:02;;;;;;;1.67;1.57;;;12.60;50.70;;;;;;927005;150;27307;-74
2023/04/03 11:18:38;;;;;;;1.40;1.30;;;12.50;49.10;;;;;;926692;150;27366;-73
2023/04/03 11:21:05;;;;;;;2.53;1.50;;;12.40;49.60;;;;;;925924;150;27397;-73
2023/04/03 11:23:34;;;;;;;1.60;1.00;;;12.40;49.60;;;;;;926847;150;27311;-73
2023/04/03 11:26:13;;;;;;;1.53;1.30;;;12.30;49.00;;;;;;927639;150;27366;-73
2023/04/03 11:28:39;;;;;;;2.07;1.20;;;12.20;49.30;;;;;;920025;150;27367;-75
2023/04/03 11:31:20;;;;;;;2.63;1.20;;;12.10;49.70;;;;;;927185;150;27405;-75
2023/04/03 11:33:59;;;;;;;2.47;1.80;;;12.00;49.80;;;;;;926014;150;27311;-75
2023/04/03 11:36:25;;;;;;;1.87;1.47;;;11.90;49.90;;;;;;927151;150;27346;-73
2023/04/03 11:38:52;;;;;;;1.63;1.30;;;11.90;50.30;;;;;;926934;150;27511;-72
2023/04/03 11:41:20;;;;;;;2.30;1.30;;;11.80;50.00;;;;;;927653;150;27315;-72
2023/04/03 11:44:03;;;;;;;1.20;1.10;;;11.80;50.00;;;;;;935691;150;27416;-72
2023/04/03 11:46:51;;;;;;;1.40;1.30;;;11.80;50.20;;;;;;936960;150;27641;-75
2023/04/03 11:49:52;;;;;;;1.57;1.30;;;11.80;50.20;;;;;;924561;150;27366;-76
2023/04/03 11:52:40;;;;;;;1.43;1.20;;;11.80;50.20;;;;;;928539;150;27310;-74
2023/04/03 11:55:22;;;;;;;1.47;1.37;;;11.70;50.40;;;;;;928056;150;27395;-75
2023/04/03 11:58:00;;;;;;;1.60;1.50;;;11.70;50.10;;;;;;928507;150;27377;-75
2023/04/03 12:00:51;;;;;;;2.07;1.50;;;11.70;50.40;;;;;;928019;149;27343;-74
2023/04/03 12:03:26;;;;;;;1.40;1.30;;;11.70;50.00;;;;;;928494;150;27306;-74
2023/04/03 12:05:50;;;;;;;3.47;1.43;;;11.70;49.10;;;;;;913926;153;27547;-74
2023/04/03 12:08:17;;;;;;;1.67;1.33;;;11.70;49.40;;;;;;911870;154;27509;-73
2023/04/03 12:10:43;;;;;;;2.17;1.40;;;11.60;48.80;;;;;;914071;153;27539;-74
2023/04/03 12:13:12;;;;;;;2.30;1.47;;;11.60;49.20;;;;;;909139;154;27332;-74
2023/04/03 12:15:42;;;;;;;2.87;1.43;;;11.60;49.60;;;;;;911212;153;27427;-74
2023/04/03 12:18:40;;;;;;;1.43;1.30;;;11.60;50.00;;;;;;910975;153;27427;-74
2023/04/03 12:21:06;;;;;;;3.20;1.60;;;11.60;50.20;;;;;;911078;154;27491;-73
2023/04/03 12:23:36;;;;;;;2.03;1.37;;;11.60;50.30;;;;;;911869;154;27430;-73
2023/04/03 12:26:05;;;;;;;1.60;1.37;;;11.70;49.90;;;;;;911514;153;27443;-72
2023/04/03 12:28:38;;;;;;;2.97;1.63;;;11.70;49.00;;;;;;909804;154;27866;-73
2023/04/03 12:31:04;;;;;;;1.30;1.20;;;11.70;49.00;;;;;;911352;154;27891;-73
2023/04/03 12:33:59;;;;;;;1.90;1.47;;;11.70;48.90;;;;;;911736;154;27403;-73
2023/04/03 12:36:31;;;;;;;1.40;1.30;;;11.70;49.10;;;;;;911353;154;27928;-74
2023/04/03 12:39:06;;;;;;;2.10;1.50;;;11.70;48.70;;;;;;909726;154;27452;-73
2023/04/03 12:41:56;;;;;;;1.60;1.30;;;11.70;49.10;;;;;;899508;153;27442;-73
2023/04/03 12:44:23;;;;;;;1.63;1.33;;;11.70;49.40;;;;;;893554;154;27524;-73
2023/04/03 12:46:50;;;;;;;1.93;1.17;;;11.60;49.60;;;;;;908733;154;27403;-73
2023/04/03 12:49:37;;;;;;;3.03;1.60;;;11.60;49.80;;;;;;911314;153;27379;-73
2023/04/03 12:52:13;;;;;;;1.93;1.40;;;11.60;50.00;;;;;;910771;154;27336;-73
2023/04/03 12:54:43;;;;;;;1.63;1.37;;;11.60;50.20;;;;;;910602;154;27411;-78
2023/04/03 12:57:27;;;;;;;2.30;1.90;;;11.60;50.10;;;;;;911520;154;28211;-79
2023/04/03 12:59:53;;;;;;;1.93;1.30;;;11.60;49.80;;;;;;912007;153;27415;-80